Time;durP1;ratioP1;P1;durP2;ratioP2;P2;SDS_P1;SDS_P2;PMS_P1;PMS_P2;Temp;Humidity;BMP_temperature;BMP_pressure;BME280_temperature;BME280_humidity;BME280_pressure;Samples;Min_cycle;Max_cycle;Signal;HPM_P1;HPM_P2
2024/04/05 11:33:32;;;;;;;;;;;;;;;;;;6161012;22;20040;31
2024/04/05 11:35:57;;;;;;;;;;;;;;;;;;6072527;23;19928;-89
2024/04/05 11:38:23;;;;;;;;;;;;;;;;;;6097859;23;19917;-89
2024/04/05 11:40:48;;;;;;;;;;;;;;;;;;6098494;23;20017;-88
2024/04/05 11:43:13;;;;;;;;;;;;;;;;;;6098140;23;19910;-88
2024/04/05 11:45:39;;;;;;;;;;;;;;;;;;6072648;23;19917;-88
2024/04/05 18:13:14;;;;;;;;;;;;;;;;;;6218454;23;19916;-89
2024/04/05 18:15:41;;;;;;;;;;;;;;;;;;6247886;23;19931;-88
2024/04/05 18:18:07;;;;;;;;;;;;;;;;;;6247217;23;19907;-87
2024/04/05 18:20:32;;;;;;;;;;;;;;;;;;6247495;23;19938;-87
2024/04/05 18:22:57;;;;;;;;;;;;;;;;;;6247731;23;19904;-87
2024/04/05 18:25:23;;;;;;;;;;;;;;;;;;6247882;23;20242;-87
2024/04/05 18:27:49;;;;;;;;;;;;;;;;;;6247812;23;19907;-87
2024/04/05 18:30:14;;;;;;;;;;;;;;;;;;6247059;23;20341;-88
2024/04/05 18:32:40;;;;;;;;;;;;;;;;;;6220944;23;20369;-88
2024/04/05 18:35:08;;;;;;;;;;;;;;;;;;6247369;23;19911;-88
2024/04/05 18:37:34;;;;;;;;;;;;;;;;;;6220735;23;20341;-89
2024/04/05 18:39:59;;;;;;;;;;;;;;;;;;6219888;23;19993;-87
2024/04/05 18:42:26;;;;;;;;;;;;;;;;;;6220299;23;19952;-89
2024/04/05 18:44:52;;;;;;;;;;;;;;;;;;6195639;23;20318;-89
2024/04/05 18:47:17;;;;;;;;;;;;;;;;;;6220709;23;19942;-87
2024/04/05 18:49:44;;;;;;;;;;;;;;;;;;6247175;23;20303;-87
2024/04/05 18:52:11;;;;;;;;;;;;;;;;;;6220588;23;19911;-88
2024/04/05 18:54:37;;;;;;;;;;;;;;;;;;6220264;23;19903;-88
2024/04/05 18:57:03;;;;;;;;;;;;;;;;;;6220384;23;19911;-88
2024/04/05 18:59:31;;;;;;;;;;;;;;;;;;6247346;23;19994;-88
2024/04/05 19:01:57;;;;;;;;;;;;;;;;;;6220755;23;20353;-88
2024/04/05 19:04:23;;;;;;;;;;;;;;;;;;6247751;23;19985;-87
2024/04/05 19:06:49;;;;;;;;;;;;;;;;;;6220645;23;19982;-88
2024/04/05 19:09:14;;;;;;;;;;;;;;;;;;6247287;23;19934;-89
2024/04/05 19:11:43;;;;;;;;;;;;;;;;;;6247536;23;20062;-88
2024/04/05 19:14:13;;;;;;;;;;;;;;;;;;6246699;23;19919;-87
2024/04/05 19:16:39;;;;;;;;;;;;;;;;;;6246938;23;19908;-89
2024/04/05 19:19:06;;;;;;;;;;;;;;;;;;6247057;23;19982;-88
2024/04/05 19:21:35;;;;;;;;;;;;;;;;;;6247383;23;19907;-89
2024/04/05 19:24:00;;;;;;;;;;;;;;;;;;6246996;23;19915;-88
2024/04/05 19:26:30;;;;;;;;;;;;;;;;;;6220395;23;19908;-88
2024/04/05 19:28:56;;;;;;;;;;;;;;;;;;6221149;23;19912;-88
2024/04/05 19:31:21;;;;;;;;;;;;;;;;;;6247448;23;19914;-88
2024/04/05 19:33:47;;;;;;;;;;;;;;;;;;6220051;23;19907;-88
2024/04/05 19:36:14;;;;;;;;;;;;;;;;;;6247286;23;20037;-88
2024/04/05 19:38:40;;;;;;;;;;;;;;;;;;6246823;23;19914;-89
2024/04/05 19:41:06;;;;;;;;;;;;;;;;;;6247067;23;19907;-88
2024/04/05 19:43:31;;;;;;;;;;;;;;;;;;6220100;23;19904;-88
2024/04/05 19:45:56;;;;;;;;;;;;;;;;;;6220417;23;20295;-88
2024/04/05 19:48:22;;;;;;;;;;;;;;;;;;6249106;23;19990;-89
2024/04/05 19:50:47;;;;;;;;;;;;;;;;;;6222112;23;19978;-88
2024/04/05 19:53:13;;;;;;;;;;;;;;;;;;6249372;23;20326;-89
2024/04/05 19:55:38;;;;;;;;;;;;;;;;;;6249054;23;19904;-88
2024/04/05 19:58:04;;;;;;;;;;;;;;;;;;6248917;23;19908;-88
2024/04/05 20:00:29;;;;;;;;;;;;;;;;;;6249065;23;19914;-93
2024/04/05 20:02:54;;;;;;;;;;;;;;;;;;6249202;23;19914;-89
2024/04/05 20:05:21;;;;;;;;;;;;;;;;;;6249284;23;20273;-88
2024/04/05 20:07:46;;;;;;;;;;;;;;;;;;6249082;23;19907;-88
2024/04/05 20:10:11;;;;;;;;;;;;;;;;;;6248685;23;19931;-88
2024/04/05 20:12:37;;;;;;;;;;;;;;;;;;6222228;23;20238;-90
2024/04/05 20:15:03;;;;;;;;;;;;;;;;;;6248960;23;19957;-90
2024/04/05 20:17:30;;;;;;;;;;;;;;;;;;6222159;23;19990;-89
2024/04/05 20:19:56;;;;;;;;;;;;;;;;;;6197034;23;19968;-89
2024/04/05 20:22:21;;;;;;;;;;;;;;;;;;6222221;23;19990;-87
2024/04/05 20:24:46;;;;;;;;;;;;;;;;;;6221786;23;19986;-87
2024/04/05 20:27:12;;;;;;;;;;;;;;;;;;6221778;23;19908;-87
2024/04/05 20:32:33;;;;;;;;;;;;;;;;;;6248909;23;20289;-88
2024/04/05 20:35:03;;;;;;;;;;;;;;;;;;6248956;23;19911;-89
2024/04/05 20:37:29;;;;;;;;;;;;;;;;;;6248713;23;19914;-88
2024/04/05 20:39:54;;;;;;;;;;;;;;;;;;6248796;23;20374;-89
2024/04/05 20:42:20;;;;;;;;;;;;;;;;;;6248261;23;19904;-89
2024/04/05 20:44:46;;;;;;;;;;;;;;;;;;6221906;23;19907;-90
2024/04/05 20:47:11;;;;;;;;;;;;;;;;;;6221927;23;19912;-89
2024/04/05 20:49:37;;;;;;;;;;;;;;;;;;6221648;23;19904;-90
2024/04/05 20:52:02;;;;;;;;;;;;;;;;;;6221527;23;19907;-88
2024/04/05 20:54:28;;;;;;;;;;;;;;;;;;6221702;23;19987;-89
2024/04/05 20:56:54;;;;;;;;;;;;;;;;;;6248359;23;20340;-88
2024/04/05 20:59:24;;;;;;;;;;;;;;;;;;6221585;23;20238;-88
2024/04/05 21:01:50;;;;;;;;;;;;;;;;;;6221644;23;20311;-87
2024/04/05 21:04:15;;;;;;;;;;;;;;;;;;6221422;23;19908;-87
2024/04/05 21:06:40;;;;;;;;;;;;;;;;;;6248446;23;19965;-87
2024/04/05 21:09:06;;;;;;;;;;;;;;;;;;6248700;23;19912;-86
2024/04/05 21:11:31;;;;;;;;;;;;;;;;;;6248742;23;19912;-86
2024/04/05 21:13:56;;;;;;;;;;;;;;;;;;6221863;23;19911;-87
2024/04/05 21:16:22;;;;;;;;;;;;;;;;;;6248389;23;19915;-87
2024/04/05 21:18:48;;;;;;;;;;;;;;;;;;6248197;23;19982;-88
2024/04/05 21:21:15;;;;;;;;;;;;;;;;;;6248118;23;19962;-86
2024/04/05 21:23:40;;;;;;;;;;;;;;;;;;6248315;23;19908;-87
2024/04/05 21:26:07;;;;;;;;;;;;;;;;;;6221343;23;19907;-87
2024/04/05 21:28:32;;;;;;;;;;;;;;;;;;6248141;23;19908;-86
2024/04/05 21:30:58;;;;;;;;;;;;;;;;;;6248115;23;19912;-87
2024/04/05 21:33:23;;;;;;;;;;;;;;;;;;6247749;23;19935;-87
2024/04/05 21:35:49;;;;;;;;;;;;;;;;;;6248110;23;19923;-87
2024/04/05 21:38:14;;;;;;;;;;;;;;;;;;6247969;23;20337;-87
2024/04/05 21:40:39;;;;;;;;;;;;;;;;;;6248310;23;20345;-88
2024/04/05 21:43:05;;;;;;;;;;;;;;;;;;6221313;23;19908;-87
2024/04/05 21:45:33;;;;;;;;;;;;;;;;;;6221335;23;19912;-87
2024/04/05 21:47:59;;;;;;;;;;;;;;;;;;6247987;23;20234;-87
2024/04/05 21:50:24;;;;;;;;;;;;;;;;;;6247916;23;19908;-87
2024/04/05 21:52:50;;;;;;;;;;;;;;;;;;6247935;23;19911;-87
2024/04/05 21:55:15;;;;;;;;;;;;;;;;;;6247893;23;19911;-87
2024/04/05 21:57:40;;;;;;;;;;;;;;;;;;6247909;23;19991;-87
2024/04/05 22:00:11;;;;;;;;;;;;;;;;;;6248109;23;19907;-87
2024/04/05 22:02:36;;;;;;;;;;;;;;;;;;6248410;23;19907;-87
2024/04/05 22:05:02;;;;;;;;;;;;;;;;;;6247755;23;19907;-88
2024/04/05 22:07:27;;;;;;;;;;;;;;;;;;6247520;23;19908;-86
2024/04/05 22:09:53;;;;;;;;;;;;;;;;;;6247625;23;20401;-88
2024/04/05 22:12:18;;;;;;;;;;;;;;;;;;6220855;23;20327;-88
2024/04/05 22:14:43;;;;;;;;;;;;;;;;;;6247419;23;20311;-88
2024/04/05 22:17:08;;;;;;;;;;;;;;;;;;6220747;23;20237;-88
2024/04/05 22:19:35;;;;;;;;;;;;;;;;;;6247962;23;19908;-89
2024/04/05 22:22:00;;;;;;;;;;;;;;;;;;6221283;23;19910;-89
2024/04/05 22:24:27;;;;;;;;;;;;;;;;;;6221316;23;20247;-88
2024/04/05 22:26:52;;;;;;;;;;;;;;;;;;6247568;23;19916;-88
2024/04/05 22:29:17;;;;;;;;;;;;;;;;;;6247632;23;20270;-89
